Rio, West Virginia
Current Conditions -  °F | °C
As of 2:15 PM on Friday 28 Nov 2014 (Local Time) from KFRR Reporting Station
Scattered Clouds Scattered Clouds  
Wind Chill: 27°   Ceiling: Unl
Heat Index: 34°   Visibility: 10mi
Dew Point: 18°   Wind: 8mph
Humidity: 52%   Direction: 270°W
Pressure: 30.25"   Gusts: NA
Location:  39.14°N, 78.67°W
Report Text: KFRR 281915Z AUTO 27007KT 10SM SCT048 01/M08 A3025 RMK AO1
Loading
Personal Weather Stations






























Interactive Weather Map New forecast layout! Learn more

10-Day Weather Forecast

Advertisements
Track Severe Weather on mobile